createdAt,value
2023-05-03T00:02:27.276Z,80.88
2023-05-03T00:04:55.581Z,80.40
2023-05-03T00:07:23.514Z,80.47
2023-05-03T00:09:51.360Z,80.53
2023-05-03T00:12:20.914Z,80.82
2023-05-03T00:14:48.814Z,81.01
2023-05-03T00:17:16.699Z,81.01
2023-05-03T00:19:45.126Z,80.85
2023-05-03T00:22:13.063Z,80.69
2023-05-03T00:24:40.918Z,80.54
2023-05-03T00:27:08.889Z,80.65
2023-05-03T00:29:38.386Z,80.06
2023-05-03T00:32:06.552Z,80.31
2023-05-03T00:34:34.459Z,80.18
2023-05-03T00:37:02.444Z,80.33
2023-05-03T00:39:31.914Z,80.58
2023-05-03T00:42:00.192Z,80.46
2023-05-03T00:44:28.716Z,80.64
2023-05-03T00:46:58.435Z,80.97
2023-05-03T00:49:26.769Z,81.14
2023-05-03T00:51:55.103Z,80.77
2023-05-03T00:54:23.984Z,80.62
2023-05-03T00:56:52.654Z,80.66
2023-05-03T00:59:21.338Z,80.62
2023-05-03T01:01:50.891Z,80.15
2023-05-03T01:04:21.645Z,80.44
2023-05-03T01:06:59.014Z,80.11
2023-05-03T01:09:36.385Z,80.78
2023-05-03T01:12:15.389Z,81.00
2023-05-03T01:14:50.905Z,81.82
2023-05-03T01:17:25.409Z,81.39
2023-05-03T01:19:59.127Z,81.83
2023-05-03T01:22:38.301Z,81.68
2023-05-03T01:25:10.851Z,81.49
2023-05-03T01:27:41.155Z,80.68
2023-05-03T01:30:11.006Z,81.04
2023-05-03T01:32:51.568Z,80.83
2023-05-03T01:35:26.274Z,80.90
2023-05-03T01:37:56.978Z,80.41
2023-05-03T01:40:28.703Z,80.00
2023-05-03T01:42:58.233Z,79.64
2023-05-03T01:45:26.911Z,79.18
2023-05-03T01:47:57.591Z,79.33
2023-05-03T01:50:25.642Z,79.15
2023-05-03T01:52:53.642Z,79.81
2023-05-03T01:55:21.612Z,79.76
2023-05-03T01:57:50.864Z,80.48
2023-05-03T02:00:19.943Z,81.20
2023-05-03T02:02:47.894Z,80.96
2023-05-03T02:05:15.935Z,81.23
2023-05-03T02:07:43.777Z,80.98
2023-05-03T02:10:14.777Z,81.33
2023-05-03T02:12:43.200Z,80.88
2023-05-03T02:15:14.060Z,80.90
2023-05-03T02:17:45.577Z,81.08
2023-05-03T02:20:13.801Z,81.19
2023-05-03T02:22:42.225Z,81.28
2023-05-03T02:25:10.548Z,81.37
2023-05-03T02:27:38.831Z,81.49
2023-05-03T02:30:08.145Z,80.89
2023-05-03T02:32:42.800Z,80.56
2023-05-03T02:35:11.751Z,79.62
2023-05-03T02:37:39.638Z,79.57
2023-05-03T02:40:12.607Z,79.24
2023-05-03T02:42:42.008Z,78.66
2023-05-03T02:45:10.811Z,78.85
2023-05-03T02:47:38.889Z,78.92
2023-05-03T02:50:09.340Z,78.41
2023-05-03T02:52:40.345Z,78.34
2023-05-03T02:55:08.930Z,78.41
2023-05-03T02:57:37.586Z,78.32
2023-05-03T03:00:10.337Z,78.03
2023-05-03T03:02:38.447Z,78.10
2023-05-03T03:05:09.263Z,77.75
2023-05-03T03:07:39.184Z,77.70
2023-05-03T03:10:08.325Z,77.51
2023-05-03T03:12:37.181Z,78.14
2023-05-03T03:15:09.171Z,78.26
2023-05-03T03:17:39.016Z,78.11
2023-05-03T03:20:12.913Z,78.66
2023-05-03T03:22:45.566Z,78.83
2023-05-03T03:25:13.768Z,78.72
2023-05-03T03:27:41.776Z,79.03
2023-05-03T03:30:10.569Z,80.01
2023-05-03T03:32:47.148Z,80.42
2023-05-03T03:35:25.297Z,80.22
2023-05-03T03:37:53.691Z,80.10
2023-05-03T03:40:23.667Z,80.21
2023-05-03T03:42:54.242Z,80.31
2023-05-03T03:45:22.152Z,79.58
2023-05-03T03:47:52.274Z,79.84
2023-05-03T03:50:25.837Z,80.17
2023-05-03T03:52:53.750Z,80.11
2023-05-03T03:55:22.243Z,81.08
2023-05-03T03:57:53.527Z,80.17
2023-05-03T04:00:23.002Z,80.41
2023-05-03T04:02:59.318Z,81.07
2023-05-03T04:05:28.831Z,81.28
2023-05-03T04:07:56.821Z,81.61
2023-05-03T04:10:26.585Z,81.89
2023-05-03T04:12:55.671Z,81.85
2023-05-03T04:15:23.988Z,82.14
2023-05-03T04:17:52.854Z,82.00
2023-05-03T04:20:21.555Z,82.10
2023-05-03T04:22:52.313Z,82.23
2023-05-03T04:25:25.717Z,82.31
2023-05-03T04:27:59.998Z,82.40
2023-05-03T04:30:29.847Z,82.38
2023-05-03T04:33:01.335Z,82.78
2023-05-03T04:35:31.315Z,82.83
2023-05-03T04:38:04.611Z,82.89
2023-05-03T04:40:34.699Z,82.80
2023-05-03T04:43:07.711Z,82.16
2023-05-03T04:45:39.450Z,82.10
2023-05-03T04:48:10.248Z,82.63
2023-05-03T04:50:38.253Z,83.33
2023-05-03T04:53:10.756Z,83.72
2023-05-03T04:55:42.765Z,83.92
2023-05-03T04:58:11.423Z,83.97
2023-05-03T05:00:40.658Z,83.91
2023-05-03T05:03:14.062Z,84.06
2023-05-03T05:05:42.154Z,83.35
2023-05-03T05:08:13.540Z,83.38
2023-05-03T05:10:49.053Z,83.33
2023-05-03T05:13:21.749Z,83.53
2023-05-03T05:15:49.706Z,83.29
2023-05-03T05:18:18.484Z,83.64
2023-05-03T05:20:47.281Z,82.90
2023-05-03T05:23:18.074Z,82.50
2023-05-03T05:25:48.702Z,81.18
2023-05-03T05:28:16.906Z,81.12
2023-05-03T05:30:47.475Z,81.78
2023-05-03T05:33:16.789Z,81.73
2023-05-03T05:35:48.120Z,81.93
2023-05-03T05:38:18.537Z,82.34
2023-05-03T05:40:46.516Z,82.89
2023-05-03T05:43:14.536Z,82.90
2023-05-03T05:45:45.843Z,82.83
2023-05-03T05:48:15.351Z,82.50
2023-05-03T05:50:44.656Z,81.87
2023-05-03T05:53:14.658Z,82.33
2023-05-03T05:55:50.092Z,82.42
2023-05-03T05:58:18.052Z,82.03
2023-05-03T06:00:51.185Z,81.73
2023-05-03T06:03:19.638Z,82.14
2023-05-03T06:05:50.405Z,81.91
2023-05-03T06:08:18.315Z,82.31
2023-05-03T06:10:46.238Z,81.97
2023-05-03T06:13:15.545Z,82.19
2023-05-03T06:15:44.689Z,81.67
2023-05-03T06:18:12.669Z,81.84
2023-05-03T06:20:41.031Z,81.32
2023-05-03T06:23:08.920Z,81.69
2023-05-03T06:25:39.252Z,81.41
2023-05-03T06:28:07.451Z,81.09
2023-05-03T06:30:38.188Z,81.00
2023-05-03T06:33:14.588Z,80.48
2023-05-03T06:35:44.329Z,81.12
2023-05-03T06:38:12.880Z,80.44
2023-05-03T06:40:41.375Z,80.47
2023-05-03T06:43:09.430Z,79.60
2023-05-03T06:45:45.303Z,79.48
2023-05-03T06:48:13.334Z,79.33
2023-05-03T06:50:41.297Z,78.78
2023-05-03T06:53:09.865Z,78.33
2023-05-03T06:55:37.784Z,78.09
2023-05-03T06:58:10.008Z,78.36
2023-05-03T07:00:39.164Z,77.95
2023-05-03T07:03:08.562Z,78.07
2023-05-03T07:05:36.684Z,77.73
2023-05-03T07:08:04.882Z,77.80
2023-05-03T07:10:32.731Z,77.65
2023-05-03T07:13:00.629Z,76.30
2023-05-03T07:15:28.462Z,77.07
2023-05-03T07:17:56.369Z,77.29
2023-05-03T07:20:26.362Z,77.33
2023-05-03T07:22:54.226Z,77.88
2023-05-03T07:25:22.172Z,78.05
2023-05-03T07:27:50.251Z,78.11
2023-05-03T07:30:18.808Z,79.30
2023-05-03T07:32:46.967Z,79.30
2023-05-03T07:35:16.723Z,79.37
2023-05-03T07:37:46.005Z,78.73
2023-05-03T07:40:14.075Z,79.29
2023-05-03T07:42:42.027Z,79.64
2023-05-03T07:45:10.984Z,79.34
2023-05-03T07:47:40.174Z,79.82
2023-05-03T07:50:09.325Z,79.56
2023-05-03T07:52:38.130Z,79.76
2023-05-03T07:55:08.833Z,79.65
2023-05-03T07:57:36.825Z,79.71
2023-05-03T08:00:06.321Z,79.76
2023-05-03T08:02:40.607Z,80.05
2023-05-03T08:05:09.936Z,79.37
2023-05-03T08:07:38.023Z,79.34
2023-05-03T08:10:08.522Z,79.29
2023-05-03T08:12:37.437Z,79.42
2023-05-03T08:15:07.002Z,79.33
2023-05-03T08:17:41.390Z,78.85
2023-05-03T08:20:10.732Z,77.94
2023-05-03T08:22:40.515Z,76.99
2023-05-03T08:25:11.232Z,76.73
2023-05-03T08:27:40.074Z,76.59
2023-05-03T08:30:09.535Z,76.95
2023-05-03T08:32:37.566Z,76.25
2023-05-03T08:35:07.503Z,76.12
2023-05-03T08:37:41.719Z,76.17
2023-05-03T08:40:13.787Z,76.07
2023-05-03T08:42:42.687Z,75.69
2023-05-03T08:45:12.813Z,75.74
2023-05-03T08:47:41.779Z,75.35
2023-05-03T08:50:11.016Z,75.61
2023-05-03T08:52:40.756Z,76.01
2023-05-03T08:55:09.237Z,75.29
2023-05-03T08:57:38.766Z,75.15
2023-05-03T09:00:10.602Z,74.38
2023-05-03T09:02:39.886Z,74.76
2023-05-03T09:05:35.829Z,73.62
2023-05-03T09:08:05.484Z,73.71
2023-05-03T09:10:34.124Z,73.37
2023-05-03T09:13:04.005Z,72.84
2023-05-03T09:15:32.489Z,72.41
2023-05-03T09:18:16.085Z,72.19
2023-05-03T09:20:51.389Z,71.59
2023-05-03T09:23:29.732Z,71.98
2023-05-03T09:25:58.711Z,70.65
2023-05-03T09:28:28.168Z,70.46
2023-05-03T09:31:07.115Z,70.02
2023-05-03T09:33:35.095Z,69.84
2023-05-03T09:36:04.691Z,69.07
2023-05-03T09:38:34.834Z,69.07
2023-05-03T09:41:02.984Z,68.71
2023-05-03T09:43:32.484Z,68.65
2023-05-03T09:46:10.989Z,67.22
2023-05-03T09:48:39.273Z,66.32
2023-05-03T09:51:08.278Z,65.72
2023-05-03T09:53:38.260Z,66.54
2023-05-03T09:56:09.070Z,66.64
2023-05-03T09:58:39.107Z,66.90
2023-05-03T10:01:07.917Z,66.95
2023-05-03T10:03:40.919Z,66.01
2023-05-03T10:06:20.769Z,66.43
2023-05-03T10:08:51.494Z,65.43
2023-05-03T10:11:19.695Z,64.87
2023-05-03T10:13:49.105Z,65.38
2023-05-03T10:16:25.057Z,66.06
2023-05-03T10:18:57.646Z,65.40
2023-05-03T10:21:34.549Z,65.16
2023-05-03T10:24:13.075Z,65.20
2023-05-03T10:26:46.861Z,62.78
2023-05-03T10:29:54.812Z,64.17
2023-05-03T10:32:30.681Z,63.75
2023-05-03T10:35:00.689Z,64.58
2023-05-03T10:37:31.724Z,64.45
2023-05-03T10:40:07.080Z,64.03
2023-05-03T10:42:34.972Z,61.73
2023-05-03T10:45:04.910Z,61.01
2023-05-03T10:47:33.058Z,61.58
2023-05-03T10:50:26.682Z,61.40
2023-05-03T10:52:54.913Z,60.67
2023-05-03T10:55:25.926Z,59.84
2023-05-03T10:57:58.902Z,59.34
2023-05-03T11:00:37.473Z,58.97
2023-05-03T11:03:12.646Z,58.81
2023-05-03T11:05:41.095Z,59.24
2023-05-03T11:08:10.496Z,58.48
2023-05-03T11:10:38.495Z,58.79
2023-05-03T11:13:06.677Z,58.57
2023-05-03T11:15:36.359Z,59.48
2023-05-03T11:18:05.972Z,60.19
2023-05-03T11:20:34.310Z,61.12
2023-05-03T11:23:02.764Z,61.36
2023-05-03T11:25:30.901Z,61.29
2023-05-03T11:27:58.772Z,61.70
2023-05-03T11:30:27.695Z,62.34
2023-05-03T11:32:57.282Z,62.79
2023-05-03T11:35:26.967Z,62.97
2023-05-03T11:37:54.911Z,62.81
2023-05-03T11:40:23.026Z,62.30
2023-05-03T11:42:55.963Z,62.41
2023-05-03T11:45:25.701Z,63.09
2023-05-03T11:47:54.784Z,64.58
2023-05-03T11:50:45.597Z,65.62
2023-05-03T11:53:14.008Z,65.83
2023-05-03T11:55:43.293Z,65.35
2023-05-03T11:58:15.646Z,65.09
2023-05-03T12:00:45.259Z,64.43
2023-05-03T12:03:18.466Z,64.43
2023-05-03T12:05:49.751Z,63.96
2023-05-03T12:08:21.075Z,64.52
2023-05-03T12:10:53.473Z,64.42
2023-05-03T12:13:29.893Z,64.12
2023-05-03T12:16:11.065Z,63.91
2023-05-03T12:18:56.116Z,63.68
2023-05-03T12:23:57.770Z,64.01
2023-05-03T12:26:27.310Z,64.95
2023-05-03T12:28:56.864Z,64.20
2023-05-03T12:31:28.634Z,64.91
2023-05-03T12:34:20.120Z,65.01
2023-05-03T12:36:48.767Z,64.87
2023-05-03T12:39:20.185Z,64.26
2023-05-03T12:42:06.135Z,64.37
2023-05-03T12:44:35.690Z,64.47
2023-05-03T12:47:04.386Z,64.77
2023-05-03T12:49:32.965Z,64.45
2023-05-03T12:52:34.764Z,64.57
2023-05-03T12:54:54.119Z,64.50
2023-05-03T12:57:24.570Z,63.99
2023-05-03T13:00:01.907Z,63.47
2023-05-03T13:05:11.891Z,63.86
2023-05-03T13:07:55.764Z,63.68
2023-05-03T13:10:24.575Z,63.97
2023-05-03T13:12:54.162Z,63.37
2023-05-03T13:15:25.263Z,63.59
2023-05-03T13:17:54.379Z,64.13
2023-05-03T13:20:22.627Z,63.63
2023-05-03T13:22:52.009Z,63.56
2023-05-03T13:25:19.933Z,62.95
2023-05-03T13:27:50.323Z,62.74
2023-05-03T13:30:18.268Z,64.01
2023-05-03T13:32:46.274Z,64.04
2023-05-03T13:35:14.436Z,63.17
2023-05-03T13:37:42.340Z,63.73
2023-05-03T13:40:14.590Z,63.75
2023-05-03T13:42:42.596Z,63.62
2023-05-03T13:45:11.425Z,62.29
2023-05-03T13:47:59.467Z,63.11
2023-05-03T13:50:30.051Z,63.06
2023-05-03T13:52:58.015Z,63.70
2023-05-03T13:55:27.650Z,63.12
2023-05-03T13:57:55.603Z,63.14
2023-05-03T14:00:23.912Z,63.87
2023-05-03T14:02:52.619Z,64.06
2023-05-03T14:05:20.911Z,63.71
2023-05-03T14:07:48.798Z,64.12
2023-05-03T14:10:16.871Z,63.49
2023-05-03T14:12:46.306Z,63.82
2023-05-03T14:15:14.992Z,63.40
2023-05-03T14:17:43.580Z,63.61
2023-05-03T14:20:12.382Z,63.58
2023-05-03T14:22:40.445Z,64.38
2023-05-03T14:25:09.637Z,63.90
2023-05-03T14:27:37.616Z,63.91
2023-05-03T14:30:10.456Z,63.93
2023-05-03T14:32:38.422Z,64.23
2023-05-03T14:35:07.521Z,64.03
2023-05-03T14:37:36.697Z,63.47
2023-05-03T14:40:05.828Z,63.95
2023-05-03T14:42:33.945Z,63.79
2023-05-03T14:45:02.309Z,63.80
2023-05-03T14:47:34.391Z,64.13
2023-05-03T14:50:02.707Z,63.92
2023-05-03T14:52:30.841Z,63.93
2023-05-03T14:54:58.716Z,63.09
2023-05-03T14:57:26.675Z,63.58
2023-05-03T14:59:54.780Z,62.75
2023-05-03T15:02:22.962Z,63.39
2023-05-03T15:04:52.547Z,64.00
2023-05-03T15:07:20.887Z,64.17
2023-05-03T15:09:48.846Z,64.06
2023-05-03T15:12:17.380Z,63.24
2023-05-03T15:14:45.301Z,62.95
2023-05-03T15:17:13.405Z,63.05
2023-05-03T15:19:41.693Z,62.83
2023-05-03T15:22:11.033Z,63.20
2023-05-03T15:24:39.031Z,62.96
2023-05-03T15:27:07.532Z,62.65
2023-05-03T15:29:35.939Z,62.57
2023-05-03T15:32:03.895Z,62.48
2023-05-03T15:34:33.004Z,62.17
2023-05-03T15:37:00.943Z,61.83
2023-05-03T15:39:30.173Z,61.95
2023-05-03T15:41:58.082Z,62.71
2023-05-03T15:44:25.914Z,62.63
2023-05-03T15:46:53.895Z,62.28
2023-05-03T15:49:22.424Z,62.38
2023-05-03T15:51:50.241Z,62.54
2023-05-03T15:54:18.765Z,62.84
2023-05-03T15:56:50.688Z,63.28
2023-05-03T15:59:18.866Z,63.17
2023-05-03T16:01:47.352Z,62.94
2023-05-03T16:04:15.407Z,63.35
2023-05-03T16:06:43.260Z,63.67
2023-05-03T16:09:12.474Z,64.01
2023-05-03T16:11:40.383Z,63.88
2023-05-03T16:14:10.614Z,64.75
2023-05-03T16:16:38.765Z,64.63
2023-05-03T16:19:08.786Z,64.77
2023-05-03T16:21:36.685Z,64.34
2023-05-03T16:24:05.023Z,65.21
2023-05-03T16:26:34.505Z,65.30
2023-05-03T16:29:02.411Z,64.83
2023-05-03T16:31:32.386Z,65.49
2023-05-03T16:34:00.328Z,65.60
2023-05-03T16:36:28.269Z,65.21
2023-05-03T16:38:56.171Z,65.30
2023-05-03T16:41:24.299Z,65.38
2023-05-03T16:43:52.676Z,65.48
2023-05-03T16:46:21.021Z,65.99
2023-05-03T16:48:51.900Z,66.19
2023-05-03T16:51:21.741Z,66.04
2023-05-03T16:53:49.713Z,66.40
2023-05-03T16:56:17.607Z,65.96
2023-05-03T16:58:45.554Z,65.77
2023-05-03T17:01:13.558Z,66.25
2023-05-03T17:03:42.659Z,66.27
2023-05-03T17:06:12.705Z,66.50
2023-05-03T17:08:40.818Z,66.71
2023-05-03T17:11:09.912Z,66.26
2023-05-03T17:13:37.815Z,66.47
2023-05-03T17:16:08.665Z,66.79
2023-05-03T17:18:37.660Z,66.44
2023-05-03T17:21:05.858Z,66.88
2023-05-03T17:23:36.234Z,67.37
2023-05-03T17:26:05.196Z,67.01
2023-05-03T17:28:33.513Z,67.05
2023-05-03T17:31:02.550Z,67.13
2023-05-03T17:33:30.752Z,67.22
2023-05-03T17:36:00.657Z,67.27
2023-05-03T17:38:28.760Z,67.35
2023-05-03T17:40:58.017Z,67.42
2023-05-03T17:43:26.228Z,67.28
2023-05-03T17:45:54.151Z,67.45
2023-05-03T17:48:22.179Z,67.12
2023-05-03T17:50:58.459Z,67.33
2023-05-03T17:53:26.507Z,67.13
2023-05-03T17:55:54.558Z,67.32
2023-05-03T17:58:23.818Z,67.57
2023-05-03T18:00:52.550Z,67.36
2023-05-03T18:03:20.777Z,67.84
2023-05-03T18:05:49.243Z,68.25
2023-05-03T18:08:17.174Z,68.05
2023-05-03T18:10:45.233Z,68.24
2023-05-03T18:13:13.530Z,68.57
2023-05-03T18:15:42.886Z,68.80
2023-05-03T18:18:10.764Z,68.90
2023-05-03T18:20:38.642Z,68.59
2023-05-03T18:23:06.534Z,68.99
2023-05-03T18:25:34.400Z,69.14
2023-05-03T18:28:03.226Z,69.31
2023-05-03T18:30:32.499Z,68.96
2023-05-03T18:33:02.186Z,69.12
2023-05-03T18:35:30.733Z,68.99
2023-05-03T18:37:58.639Z,68.94
2023-05-03T18:40:26.782Z,69.21
2023-05-03T18:42:54.640Z,69.00
2023-05-03T18:45:22.964Z,68.86
2023-05-03T18:47:51.174Z,68.76
2023-05-03T18:50:20.582Z,69.11
2023-05-03T18:52:50.466Z,68.90
2023-05-03T18:55:18.474Z,68.86
2023-05-03T18:57:46.439Z,69.02
2023-05-03T19:00:17.937Z,69.12
2023-05-03T19:02:46.189Z,69.13
2023-05-03T19:05:15.457Z,69.48
2023-05-03T19:07:47.073Z,69.23
2023-05-03T19:10:16.341Z,69.56
2023-05-03T19:12:44.766Z,70.00
2023-05-03T19:15:12.973Z,69.60
2023-05-03T19:17:41.832Z,69.83
2023-05-03T19:20:12.032Z,69.74
2023-05-03T19:22:40.088Z,69.81
2023-05-03T19:25:10.034Z,69.62
2023-05-03T19:27:37.852Z,69.49
2023-05-03T19:30:07.062Z,69.50
2023-05-03T19:32:39.236Z,69.93
2023-05-03T19:35:09.489Z,69.92
2023-05-03T19:37:37.498Z,69.97
2023-05-03T19:40:07.151Z,70.14
2023-05-03T19:42:36.663Z,69.94
2023-05-03T19:45:04.880Z,70.53
2023-05-03T19:47:34.018Z,70.00
2023-05-03T19:50:02.353Z,70.42
2023-05-03T19:52:31.622Z,70.47
2023-05-03T19:54:59.564Z,70.32
2023-05-03T19:57:27.405Z,70.25
2023-05-03T19:59:56.669Z,70.53
2023-05-03T20:02:25.249Z,70.70
2023-05-03T20:04:53.269Z,70.40
2023-05-03T20:07:21.282Z,70.71
2023-05-03T20:09:49.403Z,70.69
2023-05-03T20:12:17.449Z,70.75
2023-05-03T20:14:46.030Z,70.63
2023-05-03T20:17:15.878Z,70.52
2023-05-03T20:19:43.853Z,70.61
2023-05-03T20:22:12.293Z,70.84
2023-05-03T20:24:40.208Z,71.12
2023-05-03T20:27:08.148Z,70.94
2023-05-03T20:29:36.069Z,71.12
2023-05-03T20:32:04.002Z,71.38
2023-05-03T20:34:33.380Z,71.33
2023-05-03T20:37:01.330Z,71.33
2023-05-03T20:39:29.742Z,70.96
2023-05-03T20:41:58.290Z,71.87
2023-05-03T20:44:26.254Z,71.72
2023-05-03T20:46:54.175Z,71.77
2023-05-03T20:49:22.068Z,71.79
2023-05-03T20:51:51.317Z,71.10
2023-05-03T20:54:19.215Z,71.03
2023-05-03T20:56:47.038Z,71.13
2023-05-03T20:59:14.867Z,70.85
2023-05-03T21:01:42.783Z,70.78
2023-05-03T21:04:10.638Z,71.38
2023-05-03T21:06:38.626Z,71.47
2023-05-03T21:09:07.898Z,70.78
2023-05-03T21:11:35.716Z,71.21
2023-05-03T21:14:03.596Z,71.12
2023-05-03T21:16:31.793Z,71.21
2023-05-03T21:18:59.699Z,71.28
2023-05-03T21:21:27.622Z,71.89
2023-05-03T21:23:55.507Z,71.62
2023-05-03T21:26:25.046Z,71.21
2023-05-03T21:28:52.944Z,71.37
2023-05-03T21:31:20.969Z,71.13
2023-05-03T21:33:48.875Z,71.55
2023-05-03T21:36:16.981Z,71.66
2023-05-03T21:38:44.881Z,70.69
2023-05-03T21:41:13.638Z,70.74
2023-05-03T21:43:43.031Z,71.20
2023-05-03T21:46:11.149Z,71.13
2023-05-03T21:48:40.292Z,70.65
2023-05-03T21:51:08.539Z,70.81
2023-05-03T21:53:36.556Z,70.09
2023-05-03T21:56:04.694Z,69.89
2023-05-03T21:58:32.562Z,69.37
2023-05-03T22:01:01.834Z,69.27
2023-05-03T22:03:29.931Z,69.79
2023-05-03T22:05:57.871Z,69.73
2023-05-03T22:08:25.929Z,69.44
2023-05-03T22:10:56.079Z,69.17
2023-05-03T22:13:23.983Z,69.46
2023-05-03T22:15:51.924Z,69.54
2023-05-03T22:18:21.128Z,68.90
2023-05-03T22:20:49.024Z,68.50
2023-05-03T22:23:17.091Z,69.24
2023-05-03T22:25:44.988Z,68.88
2023-05-03T22:28:12.891Z,69.09
2023-05-03T22:30:40.806Z,69.22
2023-05-03T22:33:08.709Z,69.19
2023-05-03T22:35:37.968Z,69.77
2023-05-03T22:38:06.390Z,69.00
2023-05-03T22:40:34.495Z,69.09
2023-05-03T22:43:02.680Z,68.97
2023-05-03T22:45:30.670Z,69.37
2023-05-03T22:47:58.731Z,69.91
2023-05-03T22:50:27.058Z,69.54
2023-05-03T22:52:56.338Z,69.93
2023-05-03T22:55:24.231Z,69.37
2023-05-03T22:57:52.110Z,69.75
2023-05-03T23:00:21.634Z,69.92
2023-05-03T23:02:49.809Z,69.18
2023-05-03T23:05:17.738Z,69.77
2023-05-03T23:07:45.617Z,69.27
2023-05-03T23:10:14.789Z,69.33
2023-05-03T23:12:42.754Z,69.61
2023-05-03T23:15:11.913Z,70.12
2023-05-03T23:17:40.006Z,69.81
2023-05-03T23:20:10.074Z,70.20
2023-05-03T23:22:40.730Z,69.51
2023-05-03T23:25:09.664Z,69.86
2023-05-03T23:27:38.920Z,69.56
2023-05-03T23:30:09.042Z,69.84
2023-05-03T23:32:37.573Z,69.91
2023-05-03T23:35:07.371Z,69.71
2023-05-03T23:37:35.214Z,70.67
2023-05-03T23:40:03.739Z,69.73
2023-05-03T23:42:31.814Z,70.16
2023-05-03T23:45:01.071Z,70.44
2023-05-03T23:47:29.009Z,69.90
2023-05-03T23:49:56.951Z,70.34
2023-05-03T23:52:24.840Z,69.71
2023-05-03T23:54:53.410Z,70.29
2023-05-03T23:57:21.493Z,70.40
2023-05-03T23:59:49.359Z,69.72
